sensor_id;sensor_type;location;lat;lon;timestamp;temperature;humidity
21302;DHT22;10810;48.270;9.996;2022-09-28T00:00:12;12.80;99.90
21302;DHT22;10810;48.270;9.996;2022-09-28T00:02:39;12.80;99.90
21302;DHT22;10810;48.270;9.996;2022-09-28T00:05:17;12.80;99.90
21302;DHT22;10810;48.270;9.996;2022-09-28T00:07:50;12.80;99.90
21302;DHT22;10810;48.270;9.996;2022-09-28T00:10:24;12.80;99.90
21302;DHT22;10810;48.270;9.996;2022-09-28T00:13:15;12.80;99.90
21302;DHT22;10810;48.270;9.996;2022-09-28T00:16:02;12.80;99.90
21302;DHT22;10810;48.270;9.996;2022-09-28T00:18:29;12.80;99.90
21302;DHT22;10810;48.270;9.996;2022-09-28T00:21:12;12.90;99.90
21302;DHT22;10810;48.270;9.996;2022-09-28T00:24:03;12.70;99.90
21302;DHT22;10810;48.270;9.996;2022-09-28T00:28:32;12.70;99.90
21302;DHT22;10810;48.270;9.996;2022-09-28T00:29:50;12.80;99.90
21302;DHT22;10810;48.270;9.996;2022-09-28T00:32:23;12.70;99.90
21302;DHT22;10810;48.270;9.996;2022-09-28T00:35:14;12.70;99.90
21302;DHT22;10810;48.270;9.996;2022-09-28T00:37:53;12.70;99.90
21302;DHT22;10810;48.270;9.996;2022-09-28T00:40:23;12.70;99.90
21302;DHT22;10810;48.270;9.996;2022-09-28T00:42:50;12.70;99.90
21302;DHT22;10810;48.270;9.996;2022-09-28T00:45:41;12.70;99.90
21302;DHT22;10810;48.270;9.996;2022-09-28T00:48:11;12.70;99.90
21302;DHT22;10810;48.270;9.996;2022-09-28T00:51:03;12.70;99.90
21302;DHT22;10810;48.270;9.996;2022-09-28T00:53:45;12.70;99.90
21302;DHT22;10810;48.270;9.996;2022-09-28T00:56:20;12.70;99.90
21302;DHT22;10810;48.270;9.996;2022-09-28T00:59:02;12.70;99.90
21302;DHT22;10810;48.270;9.996;2022-09-28T01:01:50;12.70;99.90
21302;DHT22;10810;48.270;9.996;2022-09-28T01:04:40;12.70;99.90
21302;DHT22;10810;48.270;9.996;2022-09-28T01:07:50;12.70;99.90
21302;DHT22;10810;48.270;9.996;2022-09-28T01:10:30;12.60;99.90
21302;DHT22;10810;48.270;9.996;2022-09-28T01:13:25;12.60;99.90
21302;DHT22;10810;48.270;9.996;2022-09-28T01:15:58;12.60;99.90
21302;DHT22;10810;48.270;9.996;2022-09-28T01:18:33;12.60;99.90
21302;DHT22;10810;48.270;9.996;2022-09-28T01:21:09;12.60;99.90
21302;DHT22;10810;48.270;9.996;2022-09-28T01:24:34;12.60;99.90
21302;DHT22;10810;48.270;9.996;2022-09-28T01:27:21;12.60;99.90
21302;DHT22;10810;48.270;9.996;2022-09-28T01:30:14;12.20;99.90
21302;DHT22;10810;48.270;9.996;2022-09-28T01:32:57;12.60;99.90
21302;DHT22;10810;48.270;9.996;2022-09-28T01:35:30;12.60;99.90
21302;DHT22;10810;48.270;9.996;2022-09-28T01:38:06;12.60;99.90
21302;DHT22;10810;48.270;9.996;2022-09-28T01:40:48;12.60;99.90
21302;DHT22;10810;48.270;9.996;2022-09-28T01:43:28;12.60;99.90
21302;DHT22;10810;48.270;9.996;2022-09-28T01:46:00;12.60;99.90
21302;DHT22;10810;48.270;9.996;2022-09-28T01:48:38;12.60;99.90
21302;DHT22;10810;48.270;9.996;2022-09-28T01:51:12;12.60;99.90
21302;DHT22;10810;48.270;9.996;2022-09-28T01:54:05;12.60;99.90
21302;DHT22;10810;48.270;9.996;2022-09-28T01:56:44;12.60;99.90
21302;DHT22;10810;48.270;9.996;2022-09-28T01:59:17;12.50;99.90
21302;DHT22;10810;48.270;9.996;2022-09-28T02:01:54;12.50;99.90
21302;DHT22;10810;48.270;9.996;2022-09-28T02:04:31;12.50;99.90
21302;DHT22;10810;48.270;9.996;2022-09-28T02:07:05;12.50;99.90
21302;DHT22;10810;48.270;9.996;2022-09-28T02:10:56;12.50;99.90
21302;DHT22;10810;48.270;9.996;2022-09-28T02:13:17;12.50;99.90
21302;DHT22;10810;48.270;9.996;2022-09-28T02:15:43;12.50;99.90
21302;DHT22;10810;48.270;9.996;2022-09-28T02:18:24;12.50;99.90
21302;DHT22;10810;48.270;9.996;2022-09-28T02:21:25;12.50;99.90
21302;DHT22;10810;48.270;9.996;2022-09-28T02:23:59;12.50;99.90
21302;DHT22;10810;48.270;9.996;2022-09-28T02:26:51;12.50;99.90
21302;DHT22;10810;48.270;9.996;2022-09-28T02:29:53;12.50;99.90
21302;DHT22;10810;48.270;9.996;2022-09-28T02:32:38;12.50;99.90
21302;DHT22;10810;48.270;9.996;2022-09-28T02:35:34;12.50;99.90
21302;DHT22;10810;48.270;9.996;2022-09-28T02:38:03;12.50;99.90
21302;DHT22;10810;48.270;9.996;2022-09-28T02:40:54;12.50;99.90
21302;DHT22;10810;48.270;9.996;2022-09-28T02:43:36;12.50;99.90
21302;DHT22;10810;48.270;9.996;2022-09-28T02:46:28;12.50;99.90
21302;DHT22;10810;48.270;9.996;2022-09-28T02:49:28;11.80;99.90
21302;DHT22;10810;48.270;9.996;2022-09-28T02:52:40;12.50;99.90
21302;DHT22;10810;48.270;9.996;2022-09-28T02:55:28;12.50;99.90
21302;DHT22;10810;48.270;9.996;2022-09-28T02:59:45;12.50;99.90
21302;DHT22;10810;48.270;9.996;2022-09-28T03:01:17;12.50;99.90
21302;DHT22;10810;48.270;9.996;2022-09-28T03:07:28;12.50;99.90
21302;DHT22;10810;48.270;9.996;2022-09-28T03:10:04;12.50;99.90
21302;DHT22;10810;48.270;9.996;2022-09-28T03:12:45;12.40;99.90
21302;DHT22;10810;48.270;9.996;2022-09-28T03:15:43;12.40;99.90
21302;DHT22;10810;48.270;9.996;2022-09-28T03:18:52;12.40;99.90
21302;DHT22;10810;48.270;9.996;2022-09-28T03:21:21;12.40;99.90
21302;DHT22;10810;48.270;9.996;2022-09-28T03:23:57;12.40;99.90
21302;DHT22;10810;48.270;9.996;2022-09-28T03:26:40;12.40;99.90
21302;DHT22;10810;48.270;9.996;2022-09-28T03:29:30;12.40;99.90
21302;DHT22;10810;48.270;9.996;2022-09-28T03:32:08;12.40;99.90
21302;DHT22;10810;48.270;9.996;2022-09-28T03:34:49;12.40;99.90
21302;DHT22;10810;48.270;9.996;2022-09-28T03:37:35;12.40;99.90
21302;DHT22;10810;48.270;9.996;2022-09-28T03:40:05;12.40;99.90
21302;DHT22;10810;48.270;9.996;2022-09-28T03:43:05;12.40;99.90
21302;DHT22;10810;48.270;9.996;2022-09-28T03:45:32;12.40;99.90
21302;DHT22;10810;48.270;9.996;2022-09-28T03:48:16;12.40;99.90
21302;DHT22;10810;48.270;9.996;2022-09-28T03:50:59;12.40;99.90
21302;DHT22;10810;48.270;9.996;2022-09-28T03:53:31;12.20;99.90
21302;DHT22;10810;48.270;9.996;2022-09-28T03:56:23;12.40;99.90
21302;DHT22;10810;48.270;9.996;2022-09-28T03:59:07;12.40;99.90
21302;DHT22;10810;48.270;9.996;2022-09-28T04:01:36;12.40;99.90
21302;DHT22;10810;48.270;9.996;2022-09-28T04:05:46;12.40;99.90
21302;DHT22;10810;48.270;9.996;2022-09-28T04:06:54;12.40;99.90
21302;DHT22;10810;48.270;9.996;2022-09-28T04:09:33;12.30;99.90
21302;DHT22;10810;48.270;9.996;2022-09-28T04:12:23;12.40;99.90
21302;DHT22;10810;48.270;9.996;2022-09-28T04:15:11;12.40;99.90
21302;DHT22;10810;48.270;9.996;2022-09-28T04:17:57;12.30;99.90
21302;DHT22;10810;48.270;9.996;2022-09-28T04:20:28;12.30;99.90
21302;DHT22;10810;48.270;9.996;2022-09-28T04:23:03;12.30;99.90
21302;DHT22;10810;48.270;9.996;2022-09-28T04:26:06;12.30;99.90
21302;DHT22;10810;48.270;9.996;2022-09-28T04:28:43;12.30;99.90
21302;DHT22;10810;48.270;9.996;2022-09-28T04:31:28;12.30;99.90
21302;DHT22;10810;48.270;9.996;2022-09-28T04:33:55;12.30;99.90
21302;DHT22;10810;48.270;9.996;2022-09-28T04:36:29;12.30;99.90
21302;DHT22;10810;48.270;9.996;2022-09-28T04:39:04;12.30;99.90
21302;DHT22;10810;48.270;9.996;2022-09-28T04:41:52;12.30;99.90
21302;DHT22;10810;48.270;9.996;2022-09-28T04:44:35;11.90;99.90
21302;DHT22;10810;48.270;9.996;2022-09-28T04:47:09;12.30;99.90
21302;DHT22;10810;48.270;9.996;2022-09-28T04:49:42;12.30;99.90
21302;DHT22;10810;48.270;9.996;2022-09-28T04:52:10;12.30;99.90
21302;DHT22;10810;48.270;9.996;2022-09-28T04:54:53;12.30;99.90
21302;DHT22;10810;48.270;9.996;2022-09-28T04:57:21;12.30;99.90
21302;DHT22;10810;48.270;9.996;2022-09-28T05:00:07;12.30;99.90
21302;DHT22;10810;48.270;9.996;2022-09-28T05:02:54;12.30;99.90
21302;DHT22;10810;48.270;9.996;2022-09-28T05:05:25;12.30;99.90
21302;DHT22;10810;48.270;9.996;2022-09-28T05:07:54;12.30;99.90
21302;DHT22;10810;48.270;9.996;2022-09-28T05:10:24;12.30;99.90
21302;DHT22;10810;48.270;9.996;2022-09-28T05:12:56;12.20;99.90
21302;DHT22;10810;48.270;9.996;2022-09-28T05:15:30;12.30;99.90
21302;DHT22;10810;48.270;9.996;2022-09-28T05:17:58;12.30;99.90
21302;DHT22;10810;48.270;9.996;2022-09-28T05:20:25;12.20;99.90
21302;DHT22;10810;48.270;9.996;2022-09-28T05:22:53;12.20;99.90
21302;DHT22;10810;48.270;9.996;2022-09-28T05:25:24;12.20;99.90
21302;DHT22;10810;48.270;9.996;2022-09-28T05:28:26;12.20;99.90
21302;DHT22;10810;48.270;9.996;2022-09-28T05:31:02;12.20;99.90
21302;DHT22;10810;48.270;9.996;2022-09-28T05:33:33;12.20;99.90
21302;DHT22;10810;48.270;9.996;2022-09-28T05:36:03;12.20;99.90
21302;DHT22;10810;48.270;9.996;2022-09-28T05:38:30;12.20;99.90
21302;DHT22;10810;48.270;9.996;2022-09-28T05:40:57;12.20;99.90
21302;DHT22;10810;48.270;9.996;2022-09-28T05:43:26;12.20;99.90
21302;DHT22;10810;48.270;9.996;2022-09-28T05:45:54;12.20;99.90
21302;DHT22;10810;48.270;9.996;2022-09-28T05:48:24;12.20;99.90
21302;DHT22;10810;48.270;9.996;2022-09-28T05:50:52;12.10;99.90
21302;DHT22;10810;48.270;9.996;2022-09-28T05:53:19;12.20;99.90
21302;DHT22;10810;48.270;9.996;2022-09-28T05:56:02;12.20;99.90
21302;DHT22;10810;48.270;9.996;2022-09-28T05:58:58;12.20;99.90
21302;DHT22;10810;48.270;9.996;2022-09-28T06:01:28;12.10;99.90
21302;DHT22;10810;48.270;9.996;2022-09-28T06:04:04;12.10;99.90
21302;DHT22;10810;48.270;9.996;2022-09-28T06:06:34;12.10;99.90
21302;DHT22;10810;48.270;9.996;2022-09-28T06:09:05;12.10;99.90
21302;DHT22;10810;48.270;9.996;2022-09-28T06:11:34;12.10;99.90
21302;DHT22;10810;48.270;9.996;2022-09-28T06:14:03;12.10;99.90
21302;DHT22;10810;48.270;9.996;2022-09-28T06:16:53;12.10;99.90
21302;DHT22;10810;48.270;9.996;2022-09-28T06:19:40;12.10;99.90
21302;DHT22;10810;48.270;9.996;2022-09-28T06:22:09;12.70;99.90
21302;DHT22;10810;48.270;9.996;2022-09-28T06:24:37;12.10;99.90
21302;DHT22;10810;48.270;9.996;2022-09-28T06:27:19;12.10;99.90
21302;DHT22;10810;48.270;9.996;2022-09-28T06:30:17;12.10;99.90
21302;DHT22;10810;48.270;9.996;2022-09-28T06:32:44;12.10;99.90
21302;DHT22;10810;48.270;9.996;2022-09-28T06:35:17;12.10;99.90
21302;DHT22;10810;48.270;9.996;2022-09-28T06:37:49;12.10;99.90
21302;DHT22;10810;48.270;9.996;2022-09-28T06:40:16;12.10;99.90
21302;DHT22;10810;48.270;9.996;2022-09-28T06:42:53;11.80;99.90
21302;DHT22;10810;48.270;9.996;2022-09-28T06:45:48;12.10;99.90
21302;DHT22;10810;48.270;9.996;2022-09-28T06:48:16;12.10;99.90
21302;DHT22;10810;48.270;9.996;2022-09-28T06:50:44;12.10;99.90
21302;DHT22;10810;48.270;9.996;2022-09-28T06:53:13;12.10;99.90
21302;DHT22;10810;48.270;9.996;2022-09-28T06:55:41;12.10;99.90
21302;DHT22;10810;48.270;9.996;2022-09-28T06:58:12;12.10;99.90
21302;DHT22;10810;48.270;9.996;2022-09-28T07:00:46;12.10;99.90
21302;DHT22;10810;48.270;9.996;2022-09-28T07:03:36;12.10;99.90
21302;DHT22;10810;48.270;9.996;2022-09-28T07:06:21;12.10;99.90
21302;DHT22;10810;48.270;9.996;2022-09-28T07:09:25;12.10;99.90
21302;DHT22;10810;48.270;9.996;2022-09-28T07:11:52;12.10;99.90
21302;DHT22;10810;48.270;9.996;2022-09-28T07:14:20;12.20;99.90
21302;DHT22;10810;48.270;9.996;2022-09-28T07:16:51;12.20;99.90
21302;DHT22;10810;48.270;9.996;2022-09-28T07:19:20;12.20;99.90
21302;DHT22;10810;48.270;9.996;2022-09-28T07:21:52;11.90;99.90
21302;DHT22;10810;48.270;9.996;2022-09-28T07:24:19;12.20;99.90
21302;DHT22;10810;48.270;9.996;2022-09-28T07:26:49;12.20;99.90
21302;DHT22;10810;48.270;9.996;2022-09-28T07:29:24;12.20;99.90
21302;DHT22;10810;48.270;9.996;2022-09-28T07:31:57;12.20;99.90
21302;DHT22;10810;48.270;9.996;2022-09-28T07:34:24;12.20;99.90
21302;DHT22;10810;48.270;9.996;2022-09-28T07:36:59;12.20;99.90
21302;DHT22;10810;48.270;9.996;2022-09-28T07:39:31;12.20;99.90
21302;DHT22;10810;48.270;9.996;2022-09-28T07:42:19;12.20;99.90
21302;DHT22;10810;48.270;9.996;2022-09-28T07:44:45;12.20;99.90
21302;DHT22;10810;48.270;9.996;2022-09-28T07:47:15;12.20;99.90
21302;DHT22;10810;48.270;9.996;2022-09-28T07:49:44;12.20;99.90
21302;DHT22;10810;48.270;9.996;2022-09-28T07:52:22;12.20;99.90
21302;DHT22;10810;48.270;9.996;2022-09-28T07:54:59;12.20;99.90
21302;DHT22;10810;48.270;9.996;2022-09-28T07:57:44;12.20;99.90
21302;DHT22;10810;48.270;9.996;2022-09-28T08:00:18;12.20;99.90
21302;DHT22;10810;48.270;9.996;2022-09-28T08:02:52;12.20;99.90
21302;DHT22;10810;48.270;9.996;2022-09-28T08:05:21;12.10;99.90
21302;DHT22;10810;48.270;9.996;2022-09-28T08:07:59;12.10;99.90
21302;DHT22;10810;48.270;9.996;2022-09-28T08:11:15;12.20;99.90
21302;DHT22;10810;48.270;9.996;2022-09-28T08:13:45;12.10;99.90
21302;DHT22;10810;48.270;9.996;2022-09-28T08:17:11;12.10;99.90
21302;DHT22;10810;48.270;9.996;2022-09-28T08:20:02;12.20;99.90
21302;DHT22;10810;48.270;9.996;2022-09-28T08:22:55;12.20;99.90
21302;DHT22;10810;48.270;9.996;2022-09-28T08:25:33;12.20;99.90
21302;DHT22;10810;48.270;9.996;2022-09-28T08:28:39;12.20;99.90
21302;DHT22;10810;48.270;9.996;2022-09-28T08:31:25;12.20;99.90
21302;DHT22;10810;48.270;9.996;2022-09-28T08:35:30;12.20;99.90
21302;DHT22;10810;48.270;9.996;2022-09-28T08:36:49;12.10;99.90
21302;DHT22;10810;48.270;9.996;2022-09-28T08:39:20;12.20;99.90
21302;DHT22;10810;48.270;9.996;2022-09-28T08:41:52;12.20;99.90
21302;DHT22;10810;48.270;9.996;2022-09-28T08:44:24;12.20;99.90
21302;DHT22;10810;48.270;9.996;2022-09-28T08:46:58;12.20;99.90
21302;DHT22;10810;48.270;9.996;2022-09-28T08:49:35;12.20;99.90
21302;DHT22;10810;48.270;9.996;2022-09-28T08:52:12;12.20;99.90
21302;DHT22;10810;48.270;9.996;2022-09-28T08:54:59;12.30;99.90
21302;DHT22;10810;48.270;9.996;2022-09-28T08:57:36;12.30;99.90
21302;DHT22;10810;48.270;9.996;2022-09-28T09:00:05;12.30;99.90
21302;DHT22;10810;48.270;9.996;2022-09-28T09:02:40;12.20;99.90
21302;DHT22;10810;48.270;9.996;2022-09-28T09:05:12;12.30;99.90
21302;DHT22;10810;48.270;9.996;2022-09-28T09:07:55;12.20;99.90
21302;DHT22;10810;48.270;9.996;2022-09-28T09:10:58;12.20;99.90
21302;DHT22;10810;48.270;9.996;2022-09-28T09:13:46;12.20;99.90
21302;DHT22;10810;48.270;9.996;2022-09-28T09:16:25;12.20;99.90
21302;DHT22;10810;48.270;9.996;2022-09-28T09:19:04;12.30;99.90
21302;DHT22;10810;48.270;9.996;2022-09-28T09:21:44;12.30;99.90
21302;DHT22;10810;48.270;9.996;2022-09-28T09:24:34;12.30;99.90
21302;DHT22;10810;48.270;9.996;2022-09-28T09:27:24;12.30;99.90
21302;DHT22;10810;48.270;9.996;2022-09-28T09:30:02;12.30;99.90
21302;DHT22;10810;48.270;9.996;2022-09-28T09:32:55;12.20;99.90
21302;DHT22;10810;48.270;9.996;2022-09-28T09:35:47;12.30;99.90
21302;DHT22;10810;48.270;9.996;2022-09-28T09:38:31;12.30;99.90
21302;DHT22;10810;48.270;9.996;2022-09-28T09:41:12;12.30;99.90
21302;DHT22;10810;48.270;9.996;2022-09-28T09:47:03;12.20;99.90
21302;DHT22;10810;48.270;9.996;2022-09-28T09:49:35;12.30;99.90
21302;DHT22;10810;48.270;9.996;2022-09-28T09:52:13;12.30;99.90
21302;DHT22;10810;48.270;9.996;2022-09-28T09:54:45;12.30;99.90
21302;DHT22;10810;48.270;9.996;2022-09-28T09:57:23;12.30;99.90
21302;DHT22;10810;48.270;9.996;2022-09-28T09:59:55;12.40;99.90
21302;DHT22;10810;48.270;9.996;2022-09-28T10:02:27;12.40;99.90
21302;DHT22;10810;48.270;9.996;2022-09-28T10:05:03;12.40;99.90
21302;DHT22;10810;48.270;9.996;2022-09-28T10:07:51;12.40;99.90
21302;DHT22;10810;48.270;9.996;2022-09-28T10:10:25;12.40;99.90
21302;DHT22;10810;48.270;9.996;2022-09-28T10:12:53;12.40;99.90
21302;DHT22;10810;48.270;9.996;2022-09-28T10:15:25;12.30;99.90
21302;DHT22;10810;48.270;9.996;2022-09-28T10:17:55;12.40;99.90
21302;DHT22;10810;48.270;9.996;2022-09-28T10:20:38;12.40;99.90
21302;DHT22;10810;48.270;9.996;2022-09-28T10:23:27;12.40;99.90
21302;DHT22;10810;48.270;9.996;2022-09-28T10:26:04;12.30;99.90
21302;DHT22;10810;48.270;9.996;2022-09-28T10:28:39;12.30;99.90
21302;DHT22;10810;48.270;9.996;2022-09-28T10:31:33;12.30;99.90
21302;DHT22;10810;48.270;9.996;2022-09-28T10:34:07;12.30;99.90
21302;DHT22;10810;48.270;9.996;2022-09-28T10:36:53;12.30;99.90
21302;DHT22;10810;48.270;9.996;2022-09-28T10:39:33;12.20;99.90
21302;DHT22;10810;48.270;9.996;2022-09-28T10:42:06;12.30;99.90
21302;DHT22;10810;48.270;9.996;2022-09-28T10:44:37;12.20;99.90
21302;DHT22;10810;48.270;9.996;2022-09-28T10:47:21;12.30;99.90
21302;DHT22;10810;48.270;9.996;2022-09-28T10:49:54;12.20;99.90
21302;DHT22;10810;48.270;9.996;2022-09-28T10:52:41;12.20;99.90
21302;DHT22;10810;48.270;9.996;2022-09-28T10:55:26;12.20;99.90
21302;DHT22;10810;48.270;9.996;2022-09-28T10:58:24;12.20;99.90
21302;DHT22;10810;48.270;9.996;2022-09-28T11:01:01;12.20;99.90
21302;DHT22;10810;48.270;9.996;2022-09-28T11:03:33;12.20;99.90
21302;DHT22;10810;48.270;9.996;2022-09-28T11:06:06;12.20;99.90
21302;DHT22;10810;48.270;9.996;2022-09-28T11:08:41;12.20;99.90
21302;DHT22;10810;48.270;9.996;2022-09-28T11:11:15;12.20;99.90
21302;DHT22;10810;48.270;9.996;2022-09-28T11:13:48;12.20;99.90
21302;DHT22;10810;48.270;9.996;2022-09-28T11:16:23;12.20;99.90
21302;DHT22;10810;48.270;9.996;2022-09-28T11:18:54;12.20;99.90
21302;DHT22;10810;48.270;9.996;2022-09-28T11:21:25;12.20;99.90
21302;DHT22;10810;48.270;9.996;2022-09-28T11:24:00;12.30;99.90
21302;DHT22;10810;48.270;9.996;2022-09-28T11:26:43;12.30;99.90
21302;DHT22;10810;48.270;9.996;2022-09-28T11:29:23;12.30;99.90
21302;DHT22;10810;48.270;9.996;2022-09-28T11:31:54;12.30;99.90
21302;DHT22;10810;48.270;9.996;2022-09-28T11:34:31;12.30;99.90
21302;DHT22;10810;48.270;9.996;2022-09-28T11:40:28;12.30;99.90
21302;DHT22;10810;48.270;9.996;2022-09-28T11:43:13;12.30;99.90
21302;DHT22;10810;48.270;9.996;2022-09-28T11:45:53;12.30;99.90
21302;DHT22;10810;48.270;9.996;2022-09-28T11:48:24;12.30;99.90
21302;DHT22;10810;48.270;9.996;2022-09-28T11:50:56;12.40;99.90
21302;DHT22;10810;48.270;9.996;2022-09-28T11:53:32;12.40;99.90
21302;DHT22;10810;48.270;9.996;2022-09-28T11:56:05;12.40;99.90
21302;DHT22;10810;48.270;9.996;2022-09-28T11:58:47;12.40;99.90
21302;DHT22;10810;48.270;9.996;2022-09-28T12:01:27;12.40;99.90
21302;DHT22;10810;48.270;9.996;2022-09-28T12:04:07;12.40;99.90
21302;DHT22;10810;48.270;9.996;2022-09-28T12:06:39;12.40;99.90
21302;DHT22;10810;48.270;9.996;2022-09-28T12:09:24;12.40;99.90
21302;DHT22;10810;48.270;9.996;2022-09-28T12:12:02;12.30;99.90
21302;DHT22;10810;48.270;9.996;2022-09-28T12:14:34;12.40;99.90
21302;DHT22;10810;48.270;9.996;2022-09-28T12:17:16;12.40;99.90
21302;DHT22;10810;48.270;9.996;2022-09-28T12:19:48;12.40;99.90
21302;DHT22;10810;48.270;9.996;2022-09-28T12:22:28;12.40;99.90
21302;DHT22;10810;48.270;9.996;2022-09-28T12:25:13;12.40;99.90
21302;DHT22;10810;48.270;9.996;2022-09-28T12:27:52;12.40;99.90
21302;DHT22;10810;48.270;9.996;2022-09-28T12:30:23;12.40;99.90
21302;DHT22;10810;48.270;9.996;2022-09-28T12:33:00;12.40;99.90
21302;DHT22;10810;48.270;9.996;2022-09-28T12:35:42;12.40;99.90
21302;DHT22;10810;48.270;9.996;2022-09-28T12:38:37;12.40;99.90
21302;DHT22;10810;48.270;9.996;2022-09-28T12:41:27;12.40;99.90
21302;DHT22;10810;48.270;9.996;2022-09-28T12:44:16;12.40;99.90
21302;DHT22;10810;48.270;9.996;2022-09-28T12:47:05;12.40;99.90
21302;DHT22;10810;48.270;9.996;2022-09-28T12:49:57;12.40;99.90
21302;DHT22;10810;48.270;9.996;2022-09-28T12:52:46;12.40;99.90
21302;DHT22;10810;48.270;9.996;2022-09-28T12:55:23;12.40;99.90
21302;DHT22;10810;48.270;9.996;2022-09-28T12:58:05;12.40;99.90
21302;DHT22;10810;48.270;9.996;2022-09-28T13:00:48;12.40;99.90
21302;DHT22;10810;48.270;9.996;2022-09-28T13:03:33;12.40;99.90
21302;DHT22;10810;48.270;9.996;2022-09-28T13:06:33;12.40;99.90
21302;DHT22;10810;48.270;9.996;2022-09-28T13:09:45;12.40;99.90
21302;DHT22;10810;48.270;9.996;2022-09-28T13:13:02;12.30;99.90
21302;DHT22;10810;48.270;9.996;2022-09-28T13:15:50;12.40;99.90
21302;DHT22;10810;48.270;9.996;2022-09-28T13:18:26;12.40;99.90
21302;DHT22;10810;48.270;9.996;2022-09-28T13:21:11;12.40;99.90
21302;DHT22;10810;48.270;9.996;2022-09-28T16:01:30;12.30;99.90
21302;DHT22;10810;48.270;9.996;2022-09-28T16:08:17;12.30;99.90
21302;DHT22;10810;48.270;9.996;2022-09-28T17:00:15;12.20;99.90
21302;DHT22;10810;48.270;9.996;2022-09-28T17:02:59;12.20;99.90
21302;DHT22;10810;48.270;9.996;2022-09-28T17:37:50;12.10;99.90
21302;DHT22;10810;48.270;9.996;2022-09-28T17:44:03;12.10;99.90
21302;DHT22;10810;48.270;9.996;2022-09-28T17:47:11;12.10;99.90
21302;DHT22;10810;48.270;9.996;2022-09-28T17:50:10;12.10;99.90
21302;DHT22;10810;48.270;9.996;2022-09-28T18:10:23;12.10;99.90
21302;DHT22;10810;48.270;9.996;2022-09-28T18:16:23;12.10;99.90
21302;DHT22;10810;48.270;9.996;2022-09-28T18:20:03;12.10;99.90
21302;DHT22;10810;48.270;9.996;2022-09-28T18:23:15;12.10;99.90
21302;DHT22;10810;48.270;9.996;2022-09-28T18:26:15;12.10;99.90
21302;DHT22;10810;48.270;9.996;2022-09-28T18:32:50;12.10;99.90
21302;DHT22;10810;48.270;9.996;2022-09-28T18:37:06;12.00;99.90
21302;DHT22;10810;48.270;9.996;2022-09-28T18:39:29;12.10;99.90
21302;DHT22;10810;48.270;9.996;2022-09-28T18:45:40;12.10;99.90
21302;DHT22;10810;48.270;9.996;2022-09-28T19:43:17;12.00;99.90
21302;DHT22;10810;48.270;9.996;2022-09-28T19:49:38;12.00;99.90
21302;DHT22;10810;48.270;9.996;2022-09-28T19:55:53;11.90;99.90
21302;DHT22;10810;48.270;9.996;2022-09-28T19:58:27;11.90;99.90
21302;DHT22;10810;48.270;9.996;2022-09-28T20:00:57;11.90;99.90
21302;DHT22;10810;48.270;9.996;2022-09-28T20:03:25;11.90;99.90
21302;DHT22;10810;48.270;9.996;2022-09-28T20:06:02;11.20;99.90
21302;DHT22;10810;48.270;9.996;2022-09-28T20:08:35;11.90;99.90
21302;DHT22;10810;48.270;9.996;2022-09-28T20:11:20;11.90;99.90
21302;DHT22;10810;48.270;9.996;2022-09-28T20:14:08;11.90;99.90
21302;DHT22;10810;48.270;9.996;2022-09-28T20:16:40;11.90;99.90
21302;DHT22;10810;48.270;9.996;2022-09-28T20:19:08;11.90;99.90
21302;DHT22;10810;48.270;9.996;2022-09-28T20:21:37;11.40;99.90
21302;DHT22;10810;48.270;9.996;2022-09-28T20:24:05;11.30;99.90
21302;DHT22;10810;48.270;9.996;2022-09-28T20:26:35;11.90;99.90
21302;DHT22;10810;48.270;9.996;2022-09-28T20:29:24;11.90;99.90
21302;DHT22;10810;48.270;9.996;2022-09-28T20:31:54;12.70;99.90
21302;DHT22;10810;48.270;9.996;2022-09-28T20:34:24;11.90;99.90
21302;DHT22;10810;48.270;9.996;2022-09-28T20:36:58;11.80;99.90
21302;DHT22;10810;48.270;9.996;2022-09-28T20:39:40;11.40;99.90
21302;DHT22;10810;48.270;9.996;2022-09-28T20:42:18;11.90;99.90
21302;DHT22;10810;48.270;9.996;2022-09-28T20:44:47;11.60;99.90
21302;DHT22;10810;48.270;9.996;2022-09-28T20:47:14;11.90;99.90
21302;DHT22;10810;48.270;9.996;2022-09-28T20:49:50;11.80;99.90
21302;DHT22;10810;48.270;9.996;2022-09-28T20:52:23;11.20;99.90
21302;DHT22;10810;48.270;9.996;2022-09-28T20:54:54;11.80;99.90
21302;DHT22;10810;48.270;9.996;2022-09-28T20:57:26;11.80;99.90
21302;DHT22;10810;48.270;9.996;2022-09-28T20:59:57;11.90;99.90
21302;DHT22;10810;48.270;9.996;2022-09-28T21:02:27;11.80;99.90
21302;DHT22;10810;48.270;9.996;2022-09-28T21:05:02;11.90;99.90
21302;DHT22;10810;48.270;9.996;2022-09-28T21:07:37;11.90;99.90
21302;DHT22;10810;48.270;9.996;2022-09-28T21:10:08;12.00;99.90
21302;DHT22;10810;48.270;9.996;2022-09-28T21:13:04;11.80;99.90
21302;DHT22;10810;48.270;9.996;2022-09-28T21:15:34;11.90;99.90
21302;DHT22;10810;48.270;9.996;2022-09-28T21:18:03;11.80;99.90
21302;DHT22;10810;48.270;9.996;2022-09-28T21:20:45;11.90;99.90
21302;DHT22;10810;48.270;9.996;2022-09-28T21:23:22;11.80;99.90
21302;DHT22;10810;48.270;9.996;2022-09-28T21:26:00;11.90;99.90
21302;DHT22;10810;48.270;9.996;2022-09-28T21:28:37;11.80;99.90
21302;DHT22;10810;48.270;9.996;2022-09-28T21:31:10;11.80;99.90
21302;DHT22;10810;48.270;9.996;2022-09-28T21:33:40;11.80;99.90
21302;DHT22;10810;48.270;9.996;2022-09-28T21:36:15;11.80;99.90
21302;DHT22;10810;48.270;9.996;2022-09-28T21:39:09;11.80;99.90
21302;DHT22;10810;48.270;9.996;2022-09-28T21:41:59;11.80;99.90
21302;DHT22;10810;48.270;9.996;2022-09-28T21:44:30;11.80;99.90
21302;DHT22;10810;48.270;9.996;2022-09-28T21:47:00;11.80;99.90
21302;DHT22;10810;48.270;9.996;2022-09-28T21:49:28;11.80;99.90
21302;DHT22;10810;48.270;9.996;2022-09-28T21:52:07;11.70;99.90
21302;DHT22;10810;48.270;9.996;2022-09-28T21:54:35;11.70;99.90
21302;DHT22;10810;48.270;9.996;2022-09-28T21:57:02;11.80;99.90
21302;DHT22;10810;48.270;9.996;2022-09-28T21:59:45;11.70;99.90
21302;DHT22;10810;48.270;9.996;2022-09-28T22:02:26;11.80;99.90
21302;DHT22;10810;48.270;9.996;2022-09-28T22:05:26;11.70;99.90
21302;DHT22;10810;48.270;9.996;2022-09-28T22:07:54;11.70;99.90
21302;DHT22;10810;48.270;9.996;2022-09-28T22:10:40;11.70;99.90
21302;DHT22;10810;48.270;9.996;2022-09-28T22:13:09;11.80;99.90
21302;DHT22;10810;48.270;9.996;2022-09-28T22:15:43;11.80;99.90
21302;DHT22;10810;48.270;9.996;2022-09-28T22:18:29;11.70;99.90
21302;DHT22;10810;48.270;9.996;2022-09-28T22:21:07;11.70;99.90
21302;DHT22;10810;48.270;9.996;2022-09-28T22:23:37;11.80;99.90
21302;DHT22;10810;48.270;9.996;2022-09-28T22:26:14;11.70;99.90
21302;DHT22;10810;48.270;9.996;2022-09-28T22:28:44;11.70;99.90
21302;DHT22;10810;48.270;9.996;2022-09-28T22:31:20;11.70;99.90
21302;DHT22;10810;48.270;9.996;2022-09-28T22:34:13;11.80;99.90
21302;DHT22;10810;48.270;9.996;2022-09-28T22:37:04;11.00;99.90